createdAt,value
2017-08-15T00:01:45.458Z,-91
2017-08-15T00:04:11.880Z,-90
2017-08-15T00:06:38.294Z,-92
2017-08-15T00:09:04.667Z,-92
2017-08-15T00:11:31.052Z,-92
2017-08-15T00:13:57.467Z,-92
2017-08-15T00:16:23.854Z,-92
2017-08-15T00:18:50.225Z,-91
2017-08-15T00:21:16.602Z,-91
2017-08-15T00:23:42.967Z,-91
2017-08-15T00:26:09.364Z,-91
2017-08-15T00:28:35.765Z,-91
2017-08-15T00:31:02.173Z,-91
2017-08-15T00:33:28.614Z,-91
2017-08-15T00:35:55.019Z,-91
2017-08-15T00:38:21.448Z,-91
2017-08-15T00:40:47.846Z,-91
2017-08-15T00:43:14.208Z,-91
2017-08-15T00:45:40.588Z,-90
2017-08-15T00:48:06.968Z,-89
2017-08-15T00:50:33.414Z,-89
2017-08-15T00:52:59.855Z,-90
2017-08-15T00:55:26.272Z,-90
2017-08-15T00:57:52.720Z,-90
2017-08-15T01:00:19.136Z,-90
2017-08-15T01:02:45.558Z,-89
2017-08-15T01:05:11.958Z,-90
2017-08-15T01:07:38.368Z,-89
2017-08-15T01:10:04.775Z,-90
2017-08-15T01:12:31.152Z,-90
2017-08-15T01:14:57.523Z,-90
2017-08-15T01:17:23.920Z,-92
2017-08-15T01:19:50.390Z,-90
2017-08-15T01:22:16.847Z,-90
2017-08-15T01:24:43.232Z,-90
2017-08-15T01:27:09.604Z,-90
2017-08-15T01:29:35.977Z,-90
2017-08-15T01:32:02.357Z,-90
2017-08-15T01:34:28.765Z,-90
2017-08-15T01:36:55.133Z,-90
2017-08-15T01:39:21.582Z,-90
2017-08-15T01:41:47.967Z,-90
2017-08-15T01:44:14.331Z,-90
2017-08-15T01:46:40.721Z,-90
2017-08-15T01:49:07.126Z,-90
2017-08-15T01:51:33.506Z,-90
2017-08-15T01:53:59.965Z,-90
2017-08-15T01:56:26.356Z,-90
2017-08-15T01:58:52.736Z,-90
2017-08-15T02:01:19.130Z,-90
2017-08-15T02:03:45.542Z,-90
2017-08-15T02:06:11.933Z,-91
2017-08-15T02:08:38.326Z,-90
2017-08-15T02:11:04.723Z,-90
2017-08-15T02:13:31.139Z,-90
2017-08-15T02:15:57.497Z,-91
2017-08-15T02:18:23.888Z,-91
2017-08-15T02:20:50.279Z,-91
2017-08-15T02:23:16.656Z,-91
2017-08-15T02:25:43.060Z,-91
2017-08-15T02:28:09.437Z,-91
2017-08-15T02:30:35.851Z,-91
2017-08-15T02:33:02.218Z,-91
2017-08-15T02:35:28.584Z,-92
2017-08-15T02:37:54.977Z,-91
2017-08-15T02:40:21.350Z,-92
2017-08-15T02:42:47.771Z,-92
2017-08-15T02:45:14.136Z,-92
2017-08-15T02:47:40.492Z,-92
2017-08-15T02:50:06.869Z,-92
2017-08-15T02:52:33.302Z,-92
2017-08-15T02:54:59.738Z,-95
2017-08-15T02:57:26.135Z,-95
2017-08-15T02:59:52.563Z,-95
2017-08-15T03:02:19.016Z,-95
2017-08-15T03:04:45.410Z,-94
2017-08-15T03:07:11.816Z,-95
2017-08-15T03:09:38.204Z,-95
2017-08-15T03:12:04.587Z,-95
2017-08-15T03:14:30.999Z,-95
2017-08-15T03:16:57.361Z,-94
2017-08-15T03:19:23.804Z,-93
2017-08-15T03:21:50.214Z,-93
2017-08-15T03:24:16.633Z,-93
2017-08-15T03:26:43.040Z,-93
2017-08-15T03:29:09.404Z,-94
2017-08-15T03:31:35.776Z,-93
2017-08-15T03:34:02.192Z,-93
2017-08-15T03:36:28.562Z,-93
2017-08-15T03:38:54.938Z,-92
2017-08-15T03:41:21.287Z,-92
2017-08-15T03:43:47.650Z,-92
2017-08-15T03:46:14.009Z,-92
2017-08-15T03:48:40.421Z,-92
2017-08-15T03:51:06.863Z,-92
2017-08-15T03:53:33.249Z,-92
2017-08-15T03:55:59.647Z,-92
2017-08-15T03:58:26.053Z,-92
2017-08-15T04:00:52.444Z,-93
2017-08-15T04:03:18.821Z,-93
2017-08-15T04:05:45.196Z,-92
2017-08-15T04:08:11.535Z,-92
2017-08-15T04:10:37.939Z,-93
2017-08-15T04:13:04.327Z,-92
2017-08-15T04:15:30.714Z,-93
2017-08-15T04:17:57.085Z,-92
2017-08-15T04:20:23.461Z,-92
2017-08-15T04:22:49.840Z,-92
2017-08-15T04:25:16.233Z,-92
2017-08-15T04:27:42.630Z,-92
2017-08-15T04:30:08.978Z,-92
2017-08-15T04:32:35.400Z,-91
2017-08-15T04:35:01.874Z,-92
2017-08-15T04:37:28.268Z,-91
2017-08-15T04:39:54.633Z,-91
2017-08-15T04:42:21.036Z,-93
2017-08-15T04:44:47.626Z,-92
2017-08-15T04:47:13.994Z,-91
2017-08-15T04:49:40.377Z,-91
2017-08-15T04:52:06.749Z,-90
2017-08-15T04:54:33.138Z,-90
2017-08-15T04:56:59.518Z,-91
2017-08-15T04:59:25.874Z,-91
2017-08-15T05:01:52.285Z,-92
2017-08-15T05:04:18.696Z,-92
2017-08-15T05:06:45.080Z,-93
2017-08-15T05:09:11.490Z,-90
2017-08-15T05:11:37.909Z,-91
2017-08-15T05:14:04.314Z,-91
2017-08-15T05:16:30.695Z,-90
2017-08-15T05:18:57.116Z,-91
2017-08-15T05:21:23.756Z,-93
2017-08-15T05:23:50.148Z,-93
2017-08-15T05:26:16.555Z,-94
2017-08-15T05:28:42.926Z,-94
2017-08-15T05:31:09.309Z,-91
2017-08-15T05:33:35.681Z,-92
2017-08-15T05:36:02.066Z,-91
2017-08-15T05:38:29.341Z,-91
2017-08-15T05:40:55.717Z,-90
2017-08-15T05:43:22.161Z,-90
2017-08-15T05:45:48.550Z,-90
2017-08-15T05:48:14.953Z,-89
2017-08-15T05:50:41.323Z,-89
2017-08-15T05:53:07.698Z,-89
2017-08-15T05:55:34.100Z,-89
2017-08-15T05:58:00.482Z,-89
2017-08-15T06:00:26.918Z,-89
2017-08-15T06:02:53.297Z,-89
2017-08-15T06:05:19.686Z,-89
2017-08-15T06:07:46.076Z,-89
2017-08-15T06:10:12.461Z,-89
2017-08-15T06:12:38.876Z,-89
2017-08-15T06:15:05.263Z,-90
2017-08-15T06:17:31.625Z,-87
2017-08-15T06:19:58.012Z,-87
2017-08-15T06:22:24.394Z,-88
2017-08-15T06:24:50.831Z,-87
2017-08-15T06:27:17.204Z,-88
2017-08-15T06:29:43.640Z,-87
2017-08-15T06:32:10.050Z,-92
2017-08-15T06:34:36.443Z,-91
2017-08-15T06:37:02.897Z,-91
2017-08-15T06:39:29.317Z,-91
2017-08-15T06:41:55.695Z,-91
2017-08-15T06:44:22.086Z,-91
2017-08-15T06:46:48.452Z,-91
2017-08-15T06:49:14.849Z,-91
2017-08-15T06:51:41.257Z,-91
2017-08-15T06:54:07.659Z,-91
2017-08-15T06:56:34.065Z,-90
2017-08-15T06:59:00.456Z,-89
2017-08-15T07:01:26.831Z,-89
2017-08-15T07:03:53.215Z,-89
2017-08-15T07:06:19.593Z,-88
2017-08-15T07:08:45.999Z,-89
2017-08-15T07:11:12.374Z,-89
2017-08-15T07:13:38.770Z,-89
2017-08-15T07:16:05.164Z,-88
2017-08-15T07:18:31.535Z,-89
2017-08-15T07:20:57.894Z,-88
2017-08-15T07:23:24.319Z,-88
2017-08-15T07:25:50.711Z,-88
2017-08-15T07:28:17.128Z,-89
2017-08-15T07:30:43.527Z,-89
2017-08-15T07:33:10.613Z,-89
2017-08-15T07:35:37.040Z,-87
2017-08-15T07:38:03.447Z,-87
2017-08-15T07:40:29.874Z,-87
2017-08-15T07:42:56.259Z,-87
2017-08-15T07:45:22.674Z,-87
2017-08-15T07:47:49.092Z,-87
2017-08-15T07:50:15.474Z,-88
2017-08-15T07:52:41.869Z,-87
2017-08-15T07:55:08.248Z,-88
2017-08-15T07:57:34.659Z,-89
2017-08-15T08:00:01.167Z,-87
2017-08-15T08:02:27.551Z,-88
2017-08-15T08:04:54.776Z,-88
2017-08-15T08:07:21.190Z,-87
2017-08-15T08:09:48.250Z,-87
2017-08-15T08:12:14.841Z,-89
2017-08-15T08:14:41.206Z,-88
2017-08-15T08:17:07.595Z,-88
2017-08-15T08:19:33.939Z,-88
2017-08-15T08:22:00.338Z,-88
2017-08-15T08:24:26.752Z,-88
2017-08-15T08:26:53.148Z,-87
2017-08-15T08:29:19.572Z,-88
2017-08-15T08:31:47.544Z,-89
2017-08-15T08:34:13.971Z,-88
2017-08-15T08:36:45.308Z,-88
2017-08-15T08:39:13.148Z,-88
2017-08-15T08:41:39.557Z,-89
2017-08-15T08:44:05.929Z,-88
2017-08-15T08:46:32.336Z,-87
2017-08-15T08:48:58.730Z,-87
2017-08-15T08:51:25.128Z,-87
2017-08-15T08:53:51.524Z,-87
2017-08-15T08:56:17.920Z,-87
2017-08-15T08:58:44.335Z,-88
2017-08-15T09:01:10.734Z,-88
2017-08-15T09:03:37.158Z,-87
2017-08-15T09:06:03.575Z,-88
2017-08-15T09:08:29.998Z,-88
2017-08-15T09:10:56.376Z,-87
2017-08-15T09:13:22.840Z,-87
2017-08-15T09:15:49.259Z,-87
2017-08-15T09:18:15.771Z,-87
2017-08-15T09:20:42.185Z,-88
2017-08-15T09:23:08.610Z,-87
2017-08-15T09:25:35.035Z,-87
2017-08-15T09:28:01.488Z,-88
2017-08-15T09:30:27.936Z,-88
2017-08-15T09:32:54.335Z,-88
2017-08-15T09:35:20.740Z,-88
2017-08-15T09:37:47.140Z,-88
2017-08-15T09:40:13.582Z,-87
2017-08-15T09:42:40.043Z,-87
2017-08-15T09:45:06.450Z,-87
2017-08-15T09:47:32.935Z,-87
2017-08-15T09:49:59.325Z,-87
2017-08-15T09:52:25.786Z,-87
2017-08-15T09:54:52.185Z,-87
2017-08-15T09:57:18.577Z,-87
2017-08-15T09:59:44.993Z,-87
2017-08-15T10:02:11.432Z,-87
2017-08-15T10:04:37.874Z,-87
2017-08-15T10:07:04.388Z,-87
2017-08-15T10:09:30.798Z,-88
2017-08-15T10:11:57.218Z,-88
2017-08-15T10:14:23.613Z,-88
2017-08-15T10:16:50.040Z,-88
2017-08-15T10:19:16.519Z,-87
2017-08-15T10:21:43.017Z,-88
2017-08-15T10:24:09.433Z,-87
2017-08-15T10:26:35.824Z,-87
2017-08-15T10:29:02.241Z,-87
2017-08-15T10:31:28.605Z,-87
2017-08-15T10:33:55.055Z,-88
2017-08-15T10:36:21.438Z,-88
2017-08-15T10:38:47.827Z,-87
2017-08-15T10:41:14.212Z,-87
2017-08-15T10:43:40.611Z,-88
2017-08-15T10:46:07.015Z,-88
2017-08-15T10:48:33.405Z,-88
2017-08-15T10:50:59.839Z,-88
2017-08-15T10:53:26.254Z,-88
2017-08-15T10:55:52.631Z,-89
2017-08-15T10:58:19.094Z,-90
2017-08-15T11:00:45.541Z,-89
2017-08-15T11:03:11.909Z,-89
2017-08-15T11:05:38.340Z,-89
2017-08-15T11:08:04.730Z,-89
2017-08-15T11:10:31.106Z,-89
2017-08-15T11:12:57.510Z,-90
2017-08-15T11:15:24.209Z,-89
2017-08-15T11:17:50.678Z,-89
2017-08-15T11:20:17.123Z,-89
2017-08-15T11:22:43.501Z,-89
2017-08-15T11:25:10.477Z,-88
2017-08-15T11:27:36.865Z,-89
2017-08-15T11:30:03.292Z,-89
2017-08-15T11:32:29.691Z,-88
2017-08-15T11:34:56.077Z,-89
2017-08-15T11:37:22.480Z,-89
2017-08-15T11:39:49.873Z,-89
2017-08-15T11:42:16.332Z,-89
2017-08-15T11:44:42.710Z,-89
2017-08-15T11:47:09.116Z,-89
2017-08-15T11:49:35.512Z,-89
2017-08-15T11:52:01.920Z,-89
2017-08-15T11:54:28.307Z,-90
2017-08-15T11:56:54.697Z,-89
2017-08-15T11:59:21.067Z,-89
2017-08-15T12:01:47.446Z,-90
2017-08-15T12:04:13.823Z,-89
2017-08-15T12:06:40.243Z,-88
2017-08-15T12:09:07.291Z,-88
2017-08-15T12:11:33.726Z,-88
2017-08-15T12:14:00.121Z,-88
2017-08-15T12:16:26.519Z,-89
2017-08-15T12:18:52.921Z,-89
2017-08-15T12:21:19.303Z,-89
2017-08-15T12:23:45.699Z,-89
2017-08-15T12:26:12.083Z,-89
2017-08-15T12:28:38.470Z,-88
2017-08-15T12:31:04.899Z,-86
2017-08-15T12:33:31.299Z,-85
2017-08-15T12:35:57.699Z,-87
2017-08-15T12:38:24.076Z,-85
2017-08-15T12:40:50.471Z,-85
2017-08-15T12:43:16.867Z,-87
2017-08-15T12:45:43.295Z,-87
2017-08-15T12:48:09.703Z,-85
2017-08-15T12:50:36.103Z,-87
2017-08-15T12:53:02.515Z,-88
2017-08-15T12:55:28.948Z,-86
2017-08-15T12:57:55.356Z,-87
2017-08-15T13:00:21.754Z,-87
2017-08-15T13:02:48.143Z,-87
2017-08-15T13:05:14.640Z,-87
2017-08-15T13:07:41.047Z,-85
2017-08-15T13:10:07.459Z,-87
2017-08-15T13:12:33.955Z,-90
2017-08-15T13:15:00.367Z,-88
2017-08-15T13:17:26.750Z,-87
2017-08-15T13:19:53.167Z,-87
2017-08-15T13:22:19.687Z,-87
2017-08-15T13:24:46.128Z,-87
2017-08-15T13:27:12.572Z,-89
2017-08-15T13:29:39.078Z,-88
2017-08-15T13:32:05.503Z,-88
2017-08-15T13:34:31.955Z,-86
2017-08-15T13:36:58.417Z,-87
2017-08-15T13:39:24.886Z,-85
2017-08-15T13:41:51.303Z,-85
2017-08-15T13:44:17.740Z,-85
2017-08-15T13:46:44.240Z,-85
2017-08-15T13:49:10.689Z,-85
2017-08-15T13:51:37.083Z,-85
2017-08-15T13:54:03.476Z,-85
2017-08-15T13:56:29.887Z,-84
2017-08-15T13:58:56.323Z,-85
2017-08-15T14:01:22.759Z,-86
2017-08-15T14:03:49.194Z,-86
2017-08-15T14:06:15.636Z,-86
2017-08-15T14:08:42.107Z,-86
2017-08-15T14:11:08.539Z,-86
2017-08-15T14:13:34.965Z,-85
2017-08-15T14:16:01.414Z,-85
2017-08-15T14:18:27.882Z,-86
2017-08-15T14:20:54.283Z,-86
2017-08-15T14:23:20.705Z,-84
2017-08-15T14:25:47.127Z,-85
2017-08-15T14:28:13.531Z,-85
2017-08-15T14:30:39.973Z,-85
2017-08-15T14:33:06.419Z,-85
2017-08-15T14:35:32.857Z,-85
2017-08-15T14:37:59.234Z,-85
2017-08-15T14:40:25.642Z,-86
2017-08-15T14:42:52.120Z,-85
2017-08-15T14:45:18.503Z,-85
2017-08-15T14:47:44.895Z,-85
2017-08-15T14:50:11.321Z,-86
2017-08-15T14:52:37.764Z,-86
2017-08-15T14:55:04.174Z,-86
2017-08-15T14:57:30.651Z,-86
2017-08-15T14:59:57.089Z,-85
2017-08-15T15:02:23.509Z,-86
2017-08-15T15:04:49.953Z,-86
2017-08-15T15:07:16.371Z,-86
2017-08-15T15:09:42.810Z,-85
2017-08-15T15:12:09.241Z,-85
2017-08-15T15:14:35.648Z,-87
2017-08-15T15:17:02.087Z,-86
2017-08-15T15:19:28.520Z,-87
2017-08-15T15:21:54.957Z,-87
2017-08-15T15:24:21.391Z,-87
2017-08-15T15:26:47.833Z,-87
2017-08-15T15:29:14.295Z,-87
2017-08-15T15:31:41.365Z,-86
2017-08-15T15:34:07.823Z,-87
2017-08-15T15:36:34.253Z,-86
2017-08-15T15:39:00.629Z,-87
2017-08-15T15:41:27.065Z,-87
2017-08-15T15:43:53.493Z,-84
2017-08-15T15:46:19.887Z,-85
2017-08-15T15:48:46.320Z,-83
2017-08-15T15:51:12.766Z,-85
2017-08-15T15:53:39.146Z,-85
2017-08-15T15:56:05.530Z,-84
2017-08-15T15:58:31.904Z,-85
2017-08-15T16:01:01.534Z,-85
2017-08-15T16:03:27.935Z,-88
2017-08-15T16:05:54.294Z,-87
2017-08-15T16:08:20.684Z,-87
2017-08-15T16:10:47.075Z,-87
2017-08-15T16:13:13.472Z,-87
2017-08-15T16:15:39.847Z,-86
2017-08-15T16:18:06.252Z,-88
2017-08-15T16:20:32.665Z,-88
2017-08-15T16:22:59.031Z,-88
2017-08-15T16:25:25.403Z,-89
2017-08-15T16:27:51.841Z,-89
2017-08-15T16:30:18.217Z,-87
2017-08-15T16:32:44.580Z,-90
2017-08-15T16:35:10.982Z,-90
2017-08-15T16:37:37.379Z,-91
2017-08-15T16:40:03.795Z,-90
2017-08-15T16:42:30.220Z,-90
2017-08-15T16:44:56.674Z,-93
2017-08-15T16:47:23.106Z,-93
2017-08-15T16:49:55.173Z,-91
2017-08-15T16:52:21.853Z,-91
2017-08-15T16:54:48.512Z,-93
2017-08-15T16:57:14.956Z,-92
2017-08-15T16:59:41.552Z,-92
2017-08-15T17:02:07.994Z,-92
2017-08-15T17:04:34.434Z,-92
2017-08-15T17:07:00.783Z,-93
2017-08-15T17:09:27.409Z,-93
2017-08-15T17:11:55.665Z,-92
2017-08-15T17:14:22.567Z,-93
2017-08-15T17:16:49.139Z,-93
2017-08-15T17:19:15.566Z,-93
2017-08-15T17:21:42.211Z,-93
2017-08-15T17:24:09.039Z,-91
2017-08-15T17:26:35.658Z,-92
2017-08-15T17:29:02.234Z,-91
2017-08-15T17:31:29.229Z,-92
2017-08-15T17:33:56.007Z,-92
2017-08-15T17:36:22.363Z,-92
2017-08-15T17:38:48.752Z,-92
2017-08-15T17:41:15.190Z,-91
2017-08-15T17:43:41.558Z,-91
2017-08-15T17:46:07.955Z,-91
2017-08-15T17:48:34.334Z,-91
2017-08-15T17:51:00.762Z,-90
2017-08-15T17:53:27.212Z,-90
2017-08-15T17:55:53.588Z,-90
2017-08-15T17:58:19.976Z,-91
2017-08-15T18:00:46.335Z,-91
2017-08-15T18:03:12.922Z,-91
2017-08-15T18:05:39.303Z,-90
2017-08-15T18:08:05.670Z,-91
2017-08-15T18:10:32.062Z,-90
2017-08-15T18:12:58.461Z,-90
2017-08-15T18:15:26.040Z,-91
2017-08-15T18:17:53.521Z,-91
2017-08-15T18:20:19.892Z,-91
2017-08-15T18:22:46.288Z,-91
2017-08-15T18:25:12.728Z,-91
2017-08-15T18:27:39.132Z,-91
2017-08-15T18:30:05.512Z,-92
2017-08-15T18:32:31.897Z,-92
2017-08-15T18:34:58.281Z,-91
2017-08-15T18:37:24.669Z,-91
2017-08-15T18:39:51.092Z,-93
2017-08-15T18:42:17.473Z,-92
2017-08-15T18:44:43.854Z,-92
2017-08-15T18:47:10.283Z,-92
2017-08-15T18:49:36.692Z,-93
2017-08-15T18:52:03.128Z,-92
2017-08-15T18:54:29.548Z,-93
2017-08-15T18:56:55.931Z,-92
2017-08-15T18:59:22.317Z,-92
2017-08-15T19:01:48.724Z,-92
2017-08-15T19:04:15.138Z,-92
2017-08-15T19:06:41.568Z,-92
2017-08-15T19:09:07.969Z,-92
2017-08-15T19:11:34.427Z,-91
2017-08-15T19:14:00.814Z,-95
2017-08-15T19:16:27.262Z,-95
2017-08-15T19:18:53.744Z,-95
2017-08-15T19:21:20.204Z,-95
2017-08-15T19:23:46.587Z,-93
2017-08-15T19:26:12.998Z,-95
2017-08-15T19:28:39.391Z,-95
2017-08-15T19:31:05.804Z,-95
2017-08-15T19:33:32.215Z,-95
2017-08-15T19:35:58.618Z,-94
2017-08-15T19:38:25.022Z,-93
2017-08-15T19:40:51.398Z,-94
2017-08-15T19:43:17.817Z,-93
2017-08-15T19:45:44.199Z,-95
2017-08-15T19:48:10.599Z,-93
2017-08-15T19:50:36.993Z,-93
2017-08-15T19:53:03.364Z,-93
2017-08-15T19:55:29.736Z,-93
2017-08-15T19:57:56.110Z,-93
2017-08-15T20:00:22.512Z,-93
2017-08-15T20:02:48.927Z,-94
2017-08-15T20:05:15.344Z,-94
2017-08-15T20:07:41.770Z,-94
2017-08-15T20:10:08.188Z,-93
2017-08-15T20:12:34.631Z,-94
2017-08-15T20:15:01.040Z,-93
2017-08-15T20:17:27.473Z,-93
2017-08-15T20:19:53.861Z,-93
2017-08-15T20:22:20.287Z,-93
2017-08-15T20:24:46.670Z,-93
2017-08-15T20:27:13.128Z,-94
2017-08-15T20:29:39.534Z,-93
2017-08-15T20:32:05.960Z,-93
2017-08-15T20:37:08.573Z,-96
2017-08-15T20:39:34.955Z,-96
2017-08-15T20:42:01.396Z,-96
2017-08-15T20:44:28.229Z,-96
2017-08-15T20:46:54.598Z,-96
2017-08-15T20:49:21.596Z,-96
2017-08-15T20:51:48.001Z,-96
2017-08-15T20:54:14.427Z,-94
2017-08-15T20:56:40.864Z,-95
2017-08-15T20:59:07.279Z,-94
2017-08-15T21:01:33.707Z,-94
2017-08-15T21:04:00.171Z,-95
2017-08-15T21:06:26.604Z,-94
2017-08-15T21:08:53.019Z,-95
2017-08-15T21:11:19.640Z,-94
2017-08-15T21:13:46.112Z,-95
2017-08-15T21:16:12.532Z,-95
2017-08-15T21:18:38.943Z,-95
2017-08-15T21:21:05.324Z,-94
2017-08-15T21:23:31.729Z,-94
2017-08-15T21:25:58.142Z,-95
2017-08-15T21:28:24.537Z,-94
2017-08-15T21:30:50.949Z,-95
2017-08-15T21:33:17.372Z,-94
2017-08-15T21:35:43.771Z,-92
2017-08-15T21:38:10.168Z,-92
2017-08-15T21:40:36.993Z,-95
2017-08-15T21:43:03.363Z,-94
2017-08-15T21:45:30.658Z,-95
2017-08-15T21:47:57.090Z,-94
2017-08-15T21:50:23.580Z,-94
2017-08-15T21:52:49.975Z,-94
2017-08-15T21:55:16.422Z,-96
2017-08-15T21:57:42.890Z,-96
2017-08-15T22:00:09.300Z,-96
2017-08-15T22:02:35.762Z,-96
2017-08-15T22:05:02.219Z,-96
2017-08-15T22:07:28.621Z,-96
2017-08-15T22:09:55.016Z,-95
2017-08-15T22:12:21.425Z,-95
2017-08-15T22:14:47.852Z,-95
2017-08-15T22:17:14.370Z,-94
2017-08-15T22:19:40.741Z,-93
2017-08-15T22:22:07.153Z,-93
2017-08-15T22:24:33.668Z,-93
2017-08-15T22:27:00.042Z,-94
2017-08-15T22:29:26.426Z,-94
2017-08-15T22:31:52.812Z,-95
2017-08-15T22:34:19.296Z,-94
2017-08-15T22:36:45.744Z,-95
2017-08-15T22:39:12.161Z,-95
2017-08-15T22:41:38.646Z,-95
2017-08-15T22:44:05.165Z,-96
2017-08-15T22:46:31.600Z,-95
2017-08-15T22:48:58.064Z,-95
2017-08-15T22:51:24.485Z,-95
2017-08-15T22:53:51.140Z,-95
2017-08-15T22:56:17.803Z,-94
2017-08-15T22:58:44.272Z,-95
2017-08-15T23:01:11.222Z,-94
2017-08-15T23:03:37.668Z,-96
2017-08-15T23:06:04.991Z,-96
2017-08-15T23:08:31.511Z,-96
2017-08-15T23:10:57.929Z,-96
2017-08-15T23:13:24.431Z,-96
2017-08-15T23:15:51.790Z,-96
2017-08-15T23:18:18.251Z,-96
2017-08-15T23:20:44.703Z,-96
2017-08-15T23:23:11.164Z,-96
2017-08-15T23:25:37.650Z,-96
2017-08-15T23:28:04.136Z,-96
2017-08-15T23:30:30.792Z,-96
2017-08-15T23:32:57.271Z,-96
2017-08-15T23:35:23.722Z,-96
2017-08-15T23:37:50.229Z,-96
2017-08-15T23:40:16.808Z,-96
2017-08-15T23:42:43.465Z,-96
2017-08-15T23:45:09.941Z,-96
2017-08-15T23:47:36.398Z,-96
2017-08-15T23:50:03.109Z,-96
2017-08-15T23:52:29.601Z,-96
2017-08-15T23:54:56.069Z,-96
2017-08-15T23:57:22.517Z,-96
2017-08-15T23:59:49.006Z,-96
